Time;durP1;ratioP1;P1;durP2;ratioP2;P2;SDS_P1;SDS_P2;PMS_P1;PMS_P2;Temp;Humidity;BMP_temperature;BMP_pressure;BME280_temperature;BME280_humidity;BME280_pressure;Samples;Min_cycle;Max_cycle;Signal;HPM_P1;HPM_P2
2024/03/20 00:00:49;;;;;;;6.15;5.35;;;;;;;1.22;100.00;98318.41;1225083;75;2919607;-67
2024/03/20 00:03:22;;;;;;;5.90;4.45;;;;;;;1.17;100.00;98315.38;1224864;83;2920865;-67
2024/03/20 00:05:55;;;;;;;6.85;5.15;;;;;;;1.19;100.00;98313.81;1224798;75;2926788;-67
2024/03/20 00:08:28;;;;;;;7.55;5.55;;;;;;;1.16;100.00;98309.22;1225314;75;2915236;-67
2024/03/20 00:11:01;;;;;;;6.75;5.40;;;;;;;1.13;100.00;98318.09;1223952;75;2924201;-70
2024/03/20 00:13:36;;;;;;;6.05;5.45;;;;;;;1.13;100.00;98312.72;1225205;75;2919651;-67
2024/03/20 00:16:10;;;;;;;7.15;4.95;;;;;;;1.04;100.00;98313.16;1225228;75;2922416;-65
2024/03/20 00:18:43;;;;;;;8.75;5.85;;;;;;;1.11;100.00;98308.84;1221723;75;3039965;-67
2024/03/20 00:21:16;;;;;;;6.95;5.30;;;;;;;1.03;100.00;98313.53;1225015;75;2929601;-66
2024/03/20 00:23:48;;;;;;;5.80;5.20;;;;;;;0.99;100.00;98307.41;1224984;75;2921846;-68
2024/03/20 00:26:21;;;;;;;7.20;5.50;;;;;;;1.01;100.00;98307.78;1224746;75;2916322;-67
2024/03/20 00:28:57;;;;;;;6.10;5.10;;;;;;;1.01;100.00;98295.06;1225366;75;2921698;-65
2024/03/20 00:31:30;;;;;;;6.60;5.55;;;;;;;0.93;100.00;98298.19;1224873;75;2923328;-67
2024/03/20 00:34:02;;;;;;;6.35;4.95;;;;;;;0.92;100.00;98299.38;1225009;75;2924605;-69
2024/03/20 00:36:35;;;;;;;6.95;4.95;;;;;;;0.87;100.00;98291.69;1224987;75;2920920;-66
2024/03/20 00:39:08;;;;;;;7.00;4.95;;;;;;;0.92;100.00;98297.44;1225136;75;2918543;-68
2024/03/20 00:41:41;;;;;;;6.95;5.40;;;;;;;0.77;100.00;98307.53;1225239;75;2916670;-68
2024/03/20 00:44:17;;;;;;;11.30;8.40;;;;;;;0.76;100.00;98310.63;1225429;75;2924385;-68
2024/03/20 00:46:49;;;;;;;9.30;7.90;;;;;;;0.76;100.00;98305.22;1224522;75;2922490;-65
2024/03/20 00:49:22;;;;;;;10.30;7.50;;;;;;;0.58;100.00;98306.09;1225097;75;2919147;-68
2024/03/20 00:51:55;;;;;;;9.50;7.45;;;;;;;0.66;100.00;98309.53;1224520;75;2936858;-64
2024/03/20 00:54:28;;;;;;;8.00;6.40;;;;;;;0.63;100.00;98300.28;1224779;75;2918693;-67
2024/03/20 00:57:01;;;;;;;6.80;6.10;;;;;;;0.63;100.00;98291.47;1224985;75;2916561;-67
2024/03/20 00:59:37;;;;;;;6.60;5.55;;;;;;;0.62;100.00;98292.59;1225266;75;2926042;-69
2024/03/20 01:02:10;;;;;;;6.15;5.20;;;;;;;0.62;100.00;98289.91;1224695;75;2918544;-69
2024/03/20 01:04:43;;;;;;;5.90;5.00;;;;;;;0.63;100.00;98291.47;1224014;75;2917238;-67
2024/03/20 01:07:16;;;;;;;6.55;5.45;;;;;;;0.52;100.00;98286.09;1224902;75;2920410;-65
2024/03/20 01:09:49;;;;;;;7.05;5.40;;;;;;;0.45;100.00;98286.13;1224478;75;2923027;-67
2024/03/20 01:12:22;;;;;;;5.75;4.55;;;;;;;0.43;100.00;98283.06;1224800;75;2917052;-66
2024/03/20 01:14:57;;;;;;;5.85;4.30;;;;;;;0.38;100.00;98284.25;1226069;75;2919180;-66
2024/03/20 01:17:33;;;;;;;6.40;4.85;;;;;;;0.40;100.00;98281.94;1211509;75;3884169;-66
2024/03/20 01:20:07;;;;;;;7.15;5.25;;;;;;;0.34;100.00;98282.75;1209481;75;4015918;-69
2024/03/20 01:22:41;;;;;;;6.45;4.95;;;;;;;0.36;100.00;98283.09;1223823;67;2925070;-68
2024/03/20 01:25:14;;;;;;;9.15;6.10;;;;;;;0.20;100.00;98287.00;1225526;75;2919375;-68
2024/03/20 01:27:47;;;;;;;8.10;6.00;;;;;;;0.24;100.00;98278.16;1225196;75;2911436;-66
2024/03/20 01:30:23;;;;;;;7.50;5.70;;;;;;;0.26;100.00;98281.97;1224294;75;2920180;-69
2024/03/20 01:32:56;;;;;;;6.60;5.15;;;;;;;0.30;100.00;98274.66;1224302;75;2912391;-70
2024/03/20 01:35:28;;;;;;;8.20;5.40;;;;;;;0.30;100.00;98273.91;1224673;75;2917548;-66
2024/03/20 01:38:02;;;;;;;8.70;5.75;;;;;;;0.15;100.00;98268.56;1224991;75;2921380;-69
2024/03/20 01:40:34;;;;;;;7.20;5.60;;;;;;;0.11;100.00;98265.13;1225230;75;2920157;-67
2024/03/20 01:43:07;;;;;;;6.80;5.15;;;;;;;0.17;100.00;98265.50;1225465;75;2919650;-66
2024/03/20 01:45:43;;;;;;;7.10;5.20;;;;;;;0.12;100.00;98268.56;1225044;75;2921082;-67
2024/03/20 01:48:16;;;;;;;6.65;5.15;;;;;;;0.00;100.00;98264.41;1225227;75;2926623;-66
2024/03/20 01:50:49;;;;;;;6.50;5.40;;;;;;;-0.02;100.00;98258.66;1224395;75;2924760;-67
2024/03/20 01:53:23;;;;;;;9.40;6.20;;;;;;;-0.04;100.00;98256.34;1225349;75;2915057;-66
2024/03/20 01:55:56;;;;;;;6.90;5.20;;;;;;;0.07;100.00;98255.53;1225168;75;2916236;-70
2024/03/20 01:58:28;;;;;;;7.25;5.75;;;;;;;0.02;100.00;98256.69;1222699;75;2921819;-66
2024/03/20 02:01:04;;;;;;;7.30;5.60;;;;;;;-0.01;100.00;98246.72;1224425;75;2923498;-67
2024/03/20 02:03:37;;;;;;;7.70;5.65;;;;;;;0.04;100.00;98248.25;1224972;75;2918128;-67
2024/03/20 02:06:24;;;;;;;6.30;4.80;;;;;;;0.02;100.00;98250.53;1224128;75;2925055;-67
2024/03/20 02:08:59;;;;;;;5.90;4.75;;;;;;;-0.01;100.00;98244.78;1225647;75;2923309;-66
2024/03/20 02:11:33;;;;;;;6.10;4.85;;;;;;;-0.03;100.00;98244.41;1224485;75;2926140;-67
2024/03/20 02:14:06;;;;;;;5.75;4.35;;;;;;;-0.08;100.00;98244.81;1225402;75;2922629;-66
2024/03/20 02:16:41;;;;;;;7.25;4.60;;;;;;;-0.05;100.00;98237.88;1224523;75;2921646;-66
2024/03/20 02:19:14;;;;;;;6.15;4.60;;;;;;;-0.12;100.00;98237.91;1225445;75;2918112;-68
2024/03/20 02:21:49;;;;;;;6.05;4.50;;;;;;;-0.12;100.00;98233.31;1225594;75;2920316;-66
2024/03/20 02:24:22;;;;;;;6.70;4.55;;;;;;;-0.10;100.00;98230.22;1224033;75;2927395;-67
2024/03/20 02:26:55;;;;;;;5.55;4.55;;;;;;;-0.13;100.00;98237.13;1224914;75;2917848;-68
2024/03/20 02:29:28;;;;;;;6.55;4.65;;;;;;;-0.21;100.00;98238.31;1224723;75;2936936;-68
2024/03/20 02:31:58;;;;;;;6.70;4.65;;;;;;;-0.26;100.00;98234.09;1224359;75;2926192;-66
2024/03/20 02:34:31;;;;;;;7.90;5.50;;;;;;;-0.24;100.00;98228.31;1224638;75;2922362;-67
2024/03/20 02:37:07;;;;;;;7.15;5.05;;;;;;;-0.22;100.00;98237.56;1225353;75;2923556;-68
2024/03/20 02:39:39;;;;;;;6.60;5.05;;;;;;;-0.24;100.00;98234.50;1223836;75;2936470;-66
2024/03/20 02:42:12;;;;;;;6.10;4.60;;;;;;;-0.23;100.00;98221.81;1224106;75;2923339;-66
2024/03/20 02:44:45;;;;;;;7.15;5.10;;;;;;;-0.25;100.00;98232.19;1224369;75;2916642;-67
2024/03/20 02:47:18;;;;;;;5.90;4.85;;;;;;;-0.25;100.00;98226.81;1224248;75;2922457;-67
2024/03/20 02:49:53;;;;;;;5.55;4.40;;;;;;;-0.31;100.00;98218.38;1223947;75;2919204;-68
2024/03/20 02:52:28;;;;;;;6.20;4.30;;;;;;;-0.35;100.00;98220.28;1224233;75;2927023;-69
2024/03/20 02:55:01;;;;;;;6.95;5.00;;;;;;;-0.41;100.00;98224.53;1223866;75;2929178;-67
2024/03/20 02:57:34;;;;;;;5.85;4.65;;;;;;;-0.37;100.00;98222.59;1224871;75;2917754;-67
2024/03/20 03:00:10;;;;;;;6.15;4.45;;;;;;;-0.43;100.00;98218.78;1224011;75;2919774;-67
2024/03/20 03:02:43;;;;;;;5.45;4.15;;;;;;;-0.47;100.00;98220.72;1224518;75;2923223;-67
2024/03/20 03:05:16;;;;;;;6.55;4.75;;;;;;;-0.50;100.00;98224.19;1224853;75;2918911;-66
2024/03/20 03:07:51;;;;;;;6.30;4.65;;;;;;;-0.63;100.00;98221.13;1223957;75;2933051;-71
2024/03/20 03:10:27;;;;;;;8.05;5.65;;;;;;;-0.66;100.00;98228.03;1224731;75;2921268;-70
2024/03/20 03:13:00;;;;;;;6.95;5.05;;;;;;;-0.61;100.00;98226.88;1223518;75;2935322;-68
2024/03/20 03:15:35;;;;;;;7.75;5.60;;;;;;;-0.64;100.00;98222.28;1224700;75;2921382;-66
2024/03/20 03:18:09;;;;;;;8.20;5.35;;;;;;;-0.59;100.00;98227.25;1224631;75;2922008;-67
2024/03/20 03:20:44;;;;;;;5.80;4.65;;;;;;;-0.56;100.00;98223.03;1225133;75;2929047;-67
2024/03/20 03:23:20;;;;;;;6.25;4.70;;;;;;;-0.57;100.00;98229.56;1224948;75;2917627;-66
2024/03/20 03:25:53;;;;;;;5.45;4.40;;;;;;;-0.64;100.00;98230.34;1224546;75;2931900;-67
2024/03/20 03:28:25;;;;;;;6.60;4.90;;;;;;;-0.62;100.00;98233.41;1224918;75;2918468;-67
2024/03/20 03:30:58;;;;;;;8.45;5.40;;;;;;;-0.63;100.00;98233.78;1224243;75;2927012;-65
2024/03/20 03:33:31;;;;;;;7.00;5.15;;;;;;;-0.72;100.00;98234.19;1224153;75;2920000;-66
2024/03/20 03:36:11;;;;;;;8.95;6.15;;;;;;;-0.93;100.00;98240.34;1224528;75;2921840;-67
2024/03/20 03:38:46;;;;;;;7.95;6.15;;;;;;;-0.81;100.00;98236.50;1225187;75;2924174;-67
2024/03/20 03:41:19;;;;;;;8.85;6.65;;;;;;;-0.91;100.00;98241.50;1224545;75;2917106;-66
2024/03/20 03:43:53;;;;;;;8.85;6.45;;;;;;;-0.95;100.00;98240.72;1224065;75;2922151;-68
2024/03/20 03:46:26;;;;;;;8.10;6.30;;;;;;;-0.93;100.00;98238.44;1224560;75;2938899;-66
2024/03/20 03:48:58;;;;;;;7.80;5.60;;;;;;;-0.92;100.00;98237.25;1224692;75;2921933;-68
2024/03/20 03:51:31;;;;;;;8.20;5.90;;;;;;;-0.91;100.00;98238.81;1224371;75;2937315;-67
2024/03/20 03:54:07;;;;;;;10.55;7.40;;;;;;;-1.06;100.00;98239.94;1225282;75;2922465;-68
2024/03/20 03:56:40;;;;;;;9.30;6.50;;;;;;;-1.01;100.00;98244.16;1224328;75;2922096;-68
2024/03/20 03:59:13;;;;;;;8.05;6.20;;;;;;;-0.98;100.00;98248.78;1224186;75;2930735;-67
2024/03/20 04:01:46;;;;;;;10.10;7.35;;;;;;;-1.07;100.00;98246.47;1225063;75;2919245;-67
2024/03/20 04:04:18;;;;;;;9.15;7.15;;;;;;;-1.01;100.00;98244.16;1223902;75;2922605;-67
2024/03/20 04:06:51;;;;;;;8.60;6.40;;;;;;;-1.15;100.00;98244.94;1224001;75;2925336;-67
2024/03/20 04:09:27;;;;;;;9.25;6.45;;;;;;;-1.14;100.00;98241.88;1224695;75;2919170;-67
2024/03/20 04:12:01;;;;;;;8.70;6.20;;;;;;;-1.16;100.00;98246.84;1223635;75;2922427;-65
2024/03/20 04:14:34;;;;;;;6.45;5.10;;;;;;;-1.07;100.00;98241.09;1224179;75;2926274;-68
2024/03/20 04:17:07;;;;;;;8.35;5.80;;;;;;;-1.08;100.00;98244.97;1225150;75;2920864;-66
2024/03/20 04:19:40;;;;;;;8.05;5.65;;;;;;;-1.09;100.00;98238.03;1223730;75;2922515;-68
2024/03/20 04:22:13;;;;;;;8.80;5.60;;;;;;;-1.05;100.00;98240.72;1224123;75;2918841;-67
2024/03/20 04:24:50;;;;;;;6.85;5.15;;;;;;;-1.16;100.00;98236.09;1224083;75;2918772;-68
2024/03/20 04:27:23;;;;;;;6.95;5.40;;;;;;;-1.12;100.00;98239.56;1224256;75;2922728;-67
2024/03/20 04:29:54;;;;;;;7.70;6.00;;;;;;;-1.14;100.00;98235.72;1224447;75;2920762;-67
2024/03/20 04:32:27;;;;;;;10.45;7.35;;;;;;;-1.34;100.00;98238.00;1224482;75;2919707;-67
2024/03/20 04:35:00;;;;;;;9.40;7.00;;;;;;;-1.32;100.00;98233.03;1223676;75;2923841;-67
2024/03/20 04:37:33;;;;;;;9.30;6.70;;;;;;;-1.31;100.00;98235.31;1222561;75;2928554;-67
